createdAt,value
2023-02-17T00:04:04.190Z,-6.84
2023-02-17T00:09:06.215Z,-7.02
2023-02-17T00:14:10.014Z,-7.00
2023-02-17T00:19:12.395Z,-7.06
2023-02-17T00:24:14.042Z,-7.14
2023-02-17T00:29:15.932Z,-7.08
2023-02-17T00:34:17.786Z,-6.94
2023-02-17T00:39:19.723Z,-6.91
2023-02-17T00:44:23.568Z,-6.83
2023-02-17T00:49:26.091Z,-6.81
2023-02-17T00:54:28.883Z,-6.89
2023-02-17T00:59:30.811Z,-6.86
2023-02-17T01:04:32.765Z,-6.73
2023-02-17T01:09:34.718Z,-6.56
2023-02-17T01:14:36.690Z,-6.45
2023-02-17T01:19:38.568Z,-6.39
2023-02-17T01:24:40.419Z,-6.46
2023-02-17T01:29:42.287Z,-6.46
2023-02-17T01:34:44.157Z,-6.44
2023-02-17T01:39:46.183Z,-6.43
2023-02-17T01:45:18.739Z,-6.34
2023-02-17T01:50:22.450Z,-6.63
2023-02-17T01:55:24.399Z,-6.89
2023-02-17T02:00:26.588Z,-6.86
2023-02-17T02:05:28.478Z,-6.82
2023-02-17T02:10:30.347Z,-6.62
2023-02-17T02:15:35.993Z,-6.69
2023-02-17T02:20:52.461Z,-6.69
2023-02-17T02:26:18.971Z,-6.78
2023-02-17T02:31:52.806Z,-6.80
2023-02-17T02:36:54.501Z,-6.65
2023-02-17T02:41:59.128Z,-6.76
2023-02-17T02:47:05.742Z,-6.73
2023-02-17T02:52:21.367Z,-6.92
2023-02-17T02:57:36.684Z,-6.84
2023-02-17T03:02:45.681Z,-6.72
2023-02-17T03:07:59.376Z,-6.63
2023-02-17T03:13:02.500Z,-6.81
2023-02-17T03:18:04.764Z,-6.78
2023-02-17T03:23:07.684Z,-6.83
2023-02-17T03:28:09.649Z,-6.71
2023-02-17T03:33:11.542Z,-6.71
2023-02-17T03:38:13.476Z,-6.62
2023-02-17T03:43:17.862Z,-6.44
2023-02-17T03:48:19.918Z,-6.51
2023-02-17T03:53:21.814Z,-6.70
2023-02-17T03:58:23.683Z,-6.85
2023-02-17T04:03:25.641Z,-6.81
2023-02-17T04:08:27.869Z,-6.85
2023-02-17T04:13:29.854Z,-6.91
2023-02-17T04:18:31.904Z,-7.01
2023-02-17T04:23:35.758Z,-7.12
2023-02-17T04:28:41.300Z,-7.16
2023-02-17T04:33:43.315Z,-7.14
2023-02-17T04:38:45.323Z,-7.03
2023-02-17T04:43:47.204Z,-6.97
2023-02-17T04:48:49.100Z,-6.89
2023-02-17T04:53:50.980Z,-6.97
2023-02-17T04:58:52.801Z,-6.96
2023-02-17T05:03:54.708Z,-6.95
2023-02-17T05:08:56.645Z,-6.90
2023-02-17T05:13:58.557Z,-6.93
2023-02-17T05:19:00.419Z,-6.86
2023-02-17T05:24:02.321Z,-6.78
2023-02-17T05:29:04.318Z,-6.67
2023-02-17T05:34:06.295Z,-6.72
2023-02-17T05:39:08.288Z,-6.63
2023-02-17T05:44:10.262Z,-6.58
2023-02-17T05:49:12.155Z,-6.41
2023-02-17T05:54:14.039Z,-6.38
2023-02-17T05:59:15.903Z,-6.06
2023-02-17T06:04:17.836Z,-6.21
2023-02-17T06:09:19.828Z,-6.21
2023-02-17T06:14:21.749Z,-6.14
2023-02-17T06:19:24.119Z,-5.92
2023-02-17T06:24:26.034Z,-6.11
2023-02-17T06:29:27.952Z,-6.06
2023-02-17T06:34:29.825Z,-6.06
2023-02-17T06:39:31.804Z,-5.99
2023-02-17T06:44:33.666Z,-5.92
2023-02-17T06:49:35.530Z,-5.93
2023-02-17T06:54:37.366Z,-5.83
2023-02-17T06:59:39.303Z,-5.72
2023-02-17T07:04:41.762Z,-5.72
2023-02-17T07:09:43.640Z,-5.70
2023-02-17T07:14:45.491Z,-5.57
2023-02-17T07:19:47.376Z,-5.71
2023-02-17T07:24:49.305Z,-5.70
2023-02-17T07:29:51.225Z,-5.66
2023-02-17T07:34:53.137Z,-5.80
2023-02-17T07:39:54.988Z,-5.70
2023-02-17T07:44:56.937Z,-5.62
2023-02-17T07:49:58.821Z,-5.41
2023-02-17T07:55:00.775Z,-5.04
2023-02-17T08:00:03.014Z,-5.16
2023-02-17T08:05:05.868Z,-5.34
2023-02-17T08:10:08.250Z,-5.30
2023-02-17T08:15:10.654Z,-5.58
2023-02-17T08:20:12.661Z,-5.35
2023-02-17T08:25:14.536Z,-5.14
2023-02-17T08:30:16.688Z,-5.29
2023-02-17T08:35:18.666Z,-5.39
2023-02-17T08:40:20.639Z,-5.34
2023-02-17T08:45:22.568Z,-5.05
2023-02-17T08:50:24.489Z,-4.90
2023-02-17T08:55:26.369Z,-5.02
2023-02-17T09:00:28.474Z,-4.98
2023-02-17T09:05:30.404Z,-4.46
2023-02-17T09:10:32.324Z,-4.19
2023-02-17T09:15:34.179Z,-4.34
2023-02-17T09:20:36.947Z,-4.57
2023-02-17T09:25:38.905Z,-4.54
2023-02-17T09:30:41.103Z,-4.30
2023-02-17T09:35:43.128Z,-4.09
2023-02-17T09:40:46.547Z,-3.75
2023-02-17T09:45:51.515Z,-3.65
2023-02-17T09:51:00.753Z,-3.51
2023-02-17T09:56:05.097Z,-3.36
2023-02-17T10:01:09.757Z,-3.03
2023-02-17T10:06:25.208Z,-3.33
2023-02-17T10:11:34.281Z,-3.05
2023-02-17T10:16:38.859Z,-3.22
2023-02-17T10:21:56.106Z,-3.48
2023-02-17T10:27:05.339Z,-3.29
2023-02-17T10:32:24.338Z,-3.30
2023-02-17T10:37:31.281Z,-3.49
2023-02-17T10:42:37.585Z,-3.16
2023-02-17T10:47:39.387Z,-3.04
2023-02-17T10:52:41.262Z,-3.02
2023-02-17T10:57:43.118Z,-3.33
2023-02-17T11:02:48.955Z,-3.31
2023-02-17T11:07:55.652Z,-3.45
2023-02-17T11:12:59.006Z,-3.28
2023-02-17T11:18:01.504Z,-3.22
2023-02-17T11:23:15.619Z,-3.28
2023-02-17T11:28:23.898Z,-3.43
2023-02-17T11:33:31.709Z,-3.24
2023-02-17T11:38:39.501Z,-3.13
2023-02-17T11:43:52.340Z,-3.20
2023-02-17T11:49:30.584Z,-3.22
2023-02-17T11:54:57.649Z,-3.10
2023-02-17T12:00:21.347Z,-3.22
2023-02-17T12:05:25.700Z,-3.35
2023-02-17T12:10:50.131Z,-3.43
2023-02-17T12:16:10.657Z,-3.49
2023-02-17T12:21:34.977Z,-3.80
2023-02-17T12:26:40.102Z,-3.71
2023-02-17T12:32:05.002Z,-3.64
2023-02-17T12:37:08.069Z,-3.50
2023-02-17T12:42:26.489Z,-3.84
2023-02-17T12:47:31.448Z,-4.18
2023-02-17T12:52:39.294Z,-4.14
2023-02-17T12:57:50.218Z,-4.11
2023-02-17T13:02:52.106Z,-4.38
2023-02-17T13:08:03.179Z,-4.49
2023-02-17T13:13:28.623Z,-4.54
2023-02-17T13:18:32.626Z,-4.26
2023-02-17T13:23:41.623Z,-4.22
2023-02-17T13:28:44.424Z,-4.44
2023-02-17T13:33:50.862Z,-4.47
2023-02-17T13:39:18.372Z,-4.37
2023-02-17T13:44:43.553Z,-4.36
2023-02-17T13:49:55.026Z,-4.52
2023-02-17T13:55:00.935Z,-4.56
2023-02-17T14:00:23.002Z,-4.51
2023-02-17T14:05:28.956Z,-4.44
2023-02-17T14:10:30.725Z,-4.57
2023-02-17T14:15:32.644Z,-4.55
2023-02-17T14:20:36.224Z,-4.38
2023-02-17T14:25:39.745Z,-4.43
2023-02-17T14:30:41.689Z,-4.45
2023-02-17T14:35:56.717Z,-4.78
2023-02-17T14:40:59.249Z,-4.73
2023-02-17T14:46:01.106Z,-4.79
2023-02-17T14:51:03.009Z,-4.76
2023-02-17T14:56:08.915Z,-4.89
2023-02-17T15:01:15.566Z,-4.89
2023-02-17T15:06:28.811Z,-4.69
2023-02-17T15:11:33.697Z,-4.57
2023-02-17T15:16:35.542Z,-4.68
2023-02-17T15:21:39.470Z,-4.52
2023-02-17T15:26:41.764Z,-4.49
2023-02-17T15:31:43.856Z,-4.46
2023-02-17T15:36:45.922Z,-4.50
2023-02-17T15:41:50.489Z,-4.59
2023-02-17T15:46:54.370Z,-4.61
2023-02-17T15:51:56.290Z,-4.70
2023-02-17T15:56:58.547Z,-4.81
2023-02-17T16:02:00.810Z,-4.79
2023-02-17T16:07:02.746Z,-4.97
2023-02-17T16:12:04.995Z,-5.14
2023-02-17T16:17:14.788Z,-5.37
2023-02-17T16:22:16.842Z,-5.50
2023-02-17T16:27:18.666Z,-5.58
2023-02-17T16:32:20.632Z,-5.61
2023-02-17T16:37:22.692Z,-5.68
2023-02-17T16:42:24.725Z,-5.72
2023-02-17T16:47:26.736Z,-5.78
2023-02-17T16:52:28.684Z,-5.82
2023-02-17T16:57:30.710Z,-5.87
2023-02-17T17:02:32.826Z,-5.95
2023-02-17T17:07:35.090Z,-5.94
2023-02-17T17:12:36.937Z,-5.88
2023-02-17T17:17:55.813Z,-5.91
2023-02-17T17:23:05.801Z,-5.94
2023-02-17T17:28:07.742Z,-5.93
2023-02-17T17:33:09.711Z,-5.94
2023-02-17T17:38:14.831Z,-5.97
2023-02-17T17:43:17.498Z,-5.96
2023-02-17T17:48:19.567Z,-5.97
2023-02-17T17:53:21.425Z,-5.92
2023-02-17T17:58:23.408Z,-5.90
2023-02-17T18:03:25.791Z,-5.97
2023-02-17T18:08:27.970Z,-6.04
2023-02-17T18:13:29.956Z,-6.03
2023-02-17T18:18:31.825Z,-6.08
2023-02-17T18:23:33.757Z,-6.06
2023-02-17T18:28:35.692Z,-6.02
2023-02-17T18:33:37.690Z,-6.01
2023-02-17T18:38:39.619Z,-6.06
2023-02-17T18:43:41.462Z,-6.08
2023-02-17T18:48:43.320Z,-6.08
2023-02-17T18:53:45.203Z,-6.14
2023-02-17T18:58:47.103Z,-6.12
2023-02-17T19:03:49.100Z,-6.21
2023-02-17T19:08:51.006Z,-6.19
2023-02-17T19:13:52.932Z,-6.13
2023-02-17T19:18:55.301Z,-6.14
2023-02-17T19:23:57.157Z,-6.15
2023-02-17T19:29:00.120Z,-6.15
2023-02-17T19:34:02.127Z,-6.16
2023-02-17T19:39:03.959Z,-6.20
2023-02-17T19:44:05.742Z,-6.21
2023-02-17T19:49:07.585Z,-6.23
2023-02-17T19:54:09.508Z,-6.34
2023-02-17T19:59:11.795Z,-6.41
2023-02-17T20:04:13.846Z,-6.49
2023-02-17T20:09:17.829Z,-6.55
2023-02-17T20:14:20.530Z,-6.59
2023-02-17T20:19:22.491Z,-6.61
2023-02-17T20:24:24.610Z,-6.60
2023-02-17T20:29:26.413Z,-6.58
2023-02-17T20:34:30.489Z,-6.55
2023-02-17T20:39:32.716Z,-6.59
2023-02-17T20:44:34.710Z,-6.55
2023-02-17T20:49:36.534Z,-6.57
2023-02-17T20:54:38.554Z,-6.73
2023-02-17T20:59:40.383Z,-6.84
2023-02-17T21:04:42.289Z,-6.83
2023-02-17T21:09:44.286Z,-6.89
2023-02-17T21:14:46.322Z,-6.91
2023-02-17T21:19:48.613Z,-6.91
2023-02-17T21:24:51.848Z,-6.87
2023-02-17T21:29:53.817Z,-7.01
2023-02-17T21:34:55.868Z,-7.07
2023-02-17T21:39:57.808Z,-7.12
2023-02-17T21:44:59.643Z,-7.23
2023-02-17T21:50:01.627Z,-7.28
2023-02-17T21:55:03.902Z,-7.38
2023-02-17T22:00:06.590Z,-7.43
2023-02-17T22:05:08.680Z,-7.47
2023-02-17T22:10:10.793Z,-7.58
2023-02-17T22:15:12.752Z,-7.60
2023-02-17T22:20:14.838Z,-7.69
2023-02-17T22:25:16.821Z,-7.80
2023-02-17T22:30:18.797Z,-7.85
2023-02-17T22:35:21.055Z,-7.89
2023-02-17T22:40:23.059Z,-7.85
2023-02-17T22:45:25.036Z,-7.91
2023-02-17T22:50:26.896Z,-8.00
2023-02-17T22:55:28.843Z,-8.00
2023-02-17T23:00:30.747Z,-8.05
2023-02-17T23:05:32.756Z,-8.02
2023-02-17T23:10:34.722Z,-8.02
2023-02-17T23:15:40.883Z,-8.01
2023-02-17T23:20:44.540Z,-8.06
2023-02-17T23:25:50.882Z,-8.16
2023-02-17T23:30:52.827Z,-8.17
2023-02-17T23:35:54.758Z,-8.16
2023-02-17T23:40:57.017Z,-8.20
2023-02-17T23:45:59.050Z,-8.27
2023-02-17T23:51:02.350Z,-8.35
2023-02-17T23:56:09.043Z,-8.33
